createdAt,value
2019-01-21T07:51:43.930Z,1018.38
2019-01-21T07:52:43.883Z,1018.36
2019-01-21T07:53:43.867Z,1018.37
2019-01-21T07:54:43.867Z,1018.38
2019-01-21T07:55:43.828Z,1018.36
2019-01-21T07:56:43.814Z,1018.37
2019-01-21T07:57:43.806Z,1018.32
2019-01-21T07:58:43.806Z,1018.33
2019-01-21T07:59:43.810Z,1018.34
2019-01-21T08:00:43.791Z,1018.34
2019-01-21T08:01:43.760Z,1018.30
2019-01-21T08:02:43.797Z,1018.36
2019-01-21T08:03:43.754Z,1018.30
2019-01-21T08:04:43.742Z,1018.28
2019-01-21T08:05:43.719Z,1018.24
2019-01-21T08:06:43.725Z,1018.20
2019-01-21T08:07:43.696Z,1018.18
2019-01-21T08:08:43.716Z,1018.17
2019-01-21T08:09:43.725Z,1018.19
2019-01-21T08:10:43.671Z,1018.20
2019-01-21T08:11:43.654Z,1018.18
2019-01-21T08:12:43.656Z,1018.14
2019-01-21T08:13:43.661Z,1018.19
2019-01-21T08:14:43.633Z,1018.17
2019-01-21T08:15:43.614Z,1018.24
2019-01-21T08:16:43.622Z,1018.22
2019-01-21T08:17:43.589Z,1018.19
2019-01-21T08:18:43.620Z,1018.18
2019-01-21T08:19:43.557Z,1018.25
2019-01-21T08:20:43.576Z,1018.22
2019-01-21T08:21:43.539Z,1018.23
2019-01-21T08:22:43.537Z,1018.18
2019-01-21T08:23:43.534Z,1018.21
2019-01-21T08:24:43.511Z,1018.26
2019-01-21T08:25:43.514Z,1018.22
2019-01-21T08:26:43.492Z,1018.23
2019-01-21T08:27:43.466Z,1018.19
2019-01-21T08:28:43.495Z,1018.22
2019-01-21T08:29:43.456Z,1018.20
2019-01-21T08:30:43.455Z,1018.24
2019-01-21T08:31:43.428Z,1018.18
2019-01-21T08:32:43.424Z,1018.25
2019-01-21T08:33:43.420Z,1018.29
2019-01-21T08:34:43.404Z,1018.27
2019-01-21T08:35:43.394Z,1018.26
2019-01-21T08:36:43.417Z,1018.25
2019-01-21T08:37:43.356Z,1018.22
2019-01-21T08:38:43.374Z,1018.27
2019-01-21T08:39:43.347Z,1018.22
2019-01-21T08:40:43.344Z,1018.25
2019-01-21T08:41:43.334Z,1018.22
2019-01-21T08:42:43.325Z,1018.23
2019-01-21T08:43:43.295Z,1018.22
2019-01-21T08:44:43.286Z,1018.19
2019-01-21T08:45:43.271Z,1018.29
2019-01-21T08:46:43.304Z,1018.25
2019-01-21T08:47:43.257Z,1018.24
2019-01-21T08:48:43.248Z,1018.25
2019-01-21T08:49:43.225Z,1018.29
2019-01-21T08:50:43.226Z,1018.26
2019-01-21T08:51:43.218Z,1018.16
2019-01-21T08:52:43.204Z,1018.22
2019-01-21T08:53:43.191Z,1018.24
2019-01-21T08:54:43.212Z,1018.19
2019-01-21T08:55:43.159Z,1018.21
2019-01-21T08:56:43.221Z,1018.28
2019-01-21T08:57:43.136Z,1018.25
2019-01-21T08:58:43.190Z,1018.29
2019-01-21T08:59:43.141Z,1018.28
2019-01-21T09:00:43.152Z,1018.25
2019-01-21T09:01:43.096Z,1018.26
2019-01-21T09:02:43.162Z,1018.26
2019-01-21T09:03:43.066Z,1018.26
2019-01-21T09:04:43.099Z,1018.28
2019-01-21T09:05:43.075Z,1018.31
2019-01-21T09:06:43.067Z,1018.27
2019-01-21T09:07:43.047Z,1018.30
2019-01-21T09:08:43.124Z,1018.29
2019-01-21T09:09:42.996Z,1018.27
2019-01-21T09:10:43.330Z,1018.27
2019-01-21T09:11:42.978Z,1018.29
2019-01-21T09:12:43.000Z,1018.34
2019-01-21T09:13:42.960Z,1018.28
2019-01-21T09:14:43.080Z,1018.34
2019-01-21T09:15:42.936Z,1018.37
2019-01-21T09:16:43.011Z,1018.41
2019-01-21T09:17:42.930Z,1018.41
2019-01-21T09:18:42.970Z,1018.40
2019-01-21T09:19:42.906Z,1018.43
2019-01-21T09:20:42.940Z,1018.44
2019-01-21T09:21:42.880Z,1018.44
2019-01-21T09:22:42.906Z,1018.37
2019-01-21T09:23:42.848Z,1018.34
2019-01-21T09:24:42.911Z,1018.33
2019-01-21T09:25:42.824Z,1018.36
2019-01-21T09:26:42.821Z,1018.36
2019-01-21T09:27:42.804Z,1018.38
2019-01-21T09:28:43.867Z,1018.40
2019-01-21T09:29:42.780Z,1018.43
2019-01-21T09:30:42.885Z,1018.41
2019-01-21T09:31:42.756Z,1018.41
2019-01-21T09:32:42.850Z,1018.39
2019-01-21T09:33:42.755Z,1018.28
2019-01-21T09:34:42.818Z,1018.27
2019-01-21T09:35:42.731Z,1018.31
2019-01-21T09:36:42.794Z,1018.30
2019-01-21T09:37:42.682Z,1018.33
2019-01-21T09:38:42.750Z,1018.35
2019-01-21T09:39:42.679Z,1018.36
2019-01-21T09:40:42.763Z,1018.36
2019-01-21T09:41:43.545Z,1018.32
2019-01-21T09:42:42.692Z,1018.33
2019-01-21T09:43:42.628Z,1018.34
2019-01-21T09:44:42.655Z,1018.34
2019-01-21T09:45:42.640Z,1018.34
2019-01-21T09:46:42.628Z,1018.35
2019-01-21T09:47:42.582Z,1018.31
2019-01-21T09:48:42.703Z,1018.33
2019-01-21T09:49:43.856Z,1018.38
2019-01-21T09:50:43.842Z,1018.38
2019-01-21T09:51:42.536Z,1018.40
2019-01-21T09:52:42.636Z,1018.38
2019-01-21T09:53:42.504Z,1018.41
2019-01-21T09:54:42.664Z,1018.38
2019-01-21T09:55:42.482Z,1018.39
2019-01-21T09:56:42.578Z,1018.36
2019-01-21T09:57:42.466Z,1018.40
2019-01-21T09:58:42.536Z,1018.35
2019-01-21T09:59:42.461Z,1018.32
2019-01-21T10:00:42.555Z,1018.34
2019-01-21T10:01:42.424Z,1018.30
2019-01-21T10:02:42.471Z,1018.27
2019-01-21T10:03:42.400Z,1018.24
2019-01-21T10:04:42.444Z,1018.25
2019-01-21T10:05:42.395Z,1018.22
2019-01-21T10:06:42.406Z,1018.21
2019-01-21T10:07:42.350Z,1018.20
2019-01-21T10:08:42.378Z,1018.19
2019-01-21T10:09:42.332Z,1018.21
2019-01-21T10:10:42.375Z,1018.13
2019-01-21T10:11:42.308Z,1018.21
2019-01-21T10:12:42.418Z,1018.20
2019-01-21T10:13:42.286Z,1018.07
2019-01-21T10:14:42.383Z,1018.02
2019-01-21T10:15:42.274Z,1018.09
2019-01-21T10:16:43.268Z,1018.05
2019-01-21T10:17:42.252Z,1018.09
2019-01-21T10:18:42.326Z,1018.06
2019-01-21T10:19:42.215Z,1018.07
2019-01-21T10:20:42.324Z,1018.08
2019-01-21T10:21:42.202Z,1018.01
2019-01-21T10:22:42.254Z,1018.04
2019-01-21T10:23:42.173Z,1018.01
2019-01-21T10:24:42.223Z,1018.05
2019-01-21T10:25:42.177Z,1017.97
2019-01-21T10:26:42.189Z,1018.01
2019-01-21T10:27:42.126Z,1017.95
2019-01-21T10:28:42.164Z,1017.97
2019-01-21T10:29:42.108Z,1017.96
2019-01-21T10:30:42.139Z,1017.91
2019-01-21T10:31:42.104Z,1017.86
2019-01-21T10:32:42.198Z,1017.83
2019-01-21T10:33:42.061Z,1017.91
2019-01-21T10:34:42.163Z,1017.83
2019-01-21T10:35:42.042Z,1017.81
2019-01-21T10:36:43.093Z,1017.84
2019-01-21T10:37:42.016Z,1017.83
2019-01-21T10:38:42.018Z,1017.78
2019-01-21T10:39:42.002Z,1017.78
2019-01-21T10:40:41.994Z,1017.78
2019-01-21T10:41:41.993Z,1017.68
2019-01-21T10:42:41.984Z,1017.64
2019-01-21T10:43:41.949Z,1017.66
2019-01-21T10:44:41.956Z,1017.66
2019-01-21T10:45:41.928Z,1017.54
2019-01-21T10:46:41.942Z,1017.57
2019-01-21T10:47:41.912Z,1017.49
2019-01-21T10:48:41.906Z,1017.54
2019-01-21T10:49:41.882Z,1017.49
2019-01-21T10:50:41.877Z,1017.41
2019-01-21T10:51:41.878Z,1017.48
2019-01-21T10:52:41.864Z,1017.43
2019-01-21T10:53:41.832Z,1017.39
2019-01-21T10:54:41.840Z,1017.43
2019-01-21T10:55:41.815Z,1017.41
2019-01-21T10:56:41.883Z,1017.39
2019-01-21T10:57:41.795Z,1017.40
2019-01-21T10:58:41.793Z,1017.44
2019-01-21T10:59:41.777Z,1017.34
2019-01-21T11:00:41.779Z,1017.38
2019-01-21T11:01:41.748Z,1017.37
2019-01-21T11:02:41.774Z,1017.41
2019-01-21T11:03:41.731Z,1017.35
2019-01-21T11:04:41.724Z,1017.33
2019-01-21T11:05:41.706Z,1017.39
2019-01-21T11:06:41.698Z,1017.34
2019-01-21T11:07:41.694Z,1017.27
2019-01-21T11:08:41.676Z,1017.32
2019-01-21T11:09:41.660Z,1017.31
2019-01-21T11:10:41.666Z,1017.25
2019-01-21T11:11:41.634Z,1017.30
2019-01-21T11:12:41.652Z,1017.29
2019-01-21T11:13:41.627Z,1017.28
2019-01-21T11:14:41.625Z,1017.25
2019-01-21T11:15:41.602Z,1017.19
2019-01-21T11:16:43.594Z,1017.19
2019-01-21T11:17:41.607Z,1017.13
2019-01-21T11:18:41.572Z,1017.13
2019-01-21T11:19:41.559Z,1017.13
2019-01-21T11:20:41.543Z,1017.08
2019-01-21T11:21:41.525Z,1017.05
2019-01-21T11:22:42.122Z,1017.05
2019-01-21T11:23:41.506Z,1017.10
2019-01-21T11:24:41.498Z,1017.10
2019-01-21T11:25:41.481Z,1017.13
2019-01-21T11:26:41.488Z,1017.05
2019-01-21T11:27:41.471Z,1017.07
2019-01-21T11:28:42.493Z,1017.10
2019-01-21T11:29:41.442Z,1017.03
2019-01-21T11:30:41.471Z,1017.03
2019-01-21T11:31:41.417Z,1017.00
2019-01-21T11:32:41.430Z,1017.02
2019-01-21T11:33:41.392Z,1017.08
2019-01-21T11:34:41.387Z,1017.02
2019-01-21T11:35:41.374Z,1017.09
2019-01-21T11:36:41.373Z,1017.00
2019-01-21T11:37:41.404Z,1017.08
2019-01-21T11:38:41.345Z,1017.13
2019-01-21T11:39:41.328Z,1017.11
2019-01-21T11:40:42.343Z,1017.14
2019-01-21T11:41:41.300Z,1017.15
2019-01-21T11:42:41.334Z,1017.09
2019-01-21T11:43:41.282Z,1017.13
2019-01-21T11:44:41.281Z,1017.07
2019-01-21T11:45:41.259Z,1017.05
2019-01-21T11:46:41.262Z,1017.02
2019-01-21T11:47:41.239Z,1016.96
2019-01-21T11:48:41.262Z,1016.97
2019-01-21T11:49:41.215Z,1016.98
2019-01-21T11:50:41.213Z,1016.94
2019-01-21T11:51:41.195Z,1016.90
2019-01-21T11:52:41.202Z,1016.93
2019-01-21T11:53:41.190Z,1016.83
2019-01-21T11:54:41.167Z,1016.88
2019-01-21T11:55:41.147Z,1016.84
2019-01-21T11:56:41.153Z,1016.85
2019-01-21T11:57:41.126Z,1016.81
2019-01-21T11:58:41.138Z,1016.86
2019-01-21T11:59:41.101Z,1016.79
2019-01-21T12:00:41.100Z,1016.78
2019-01-21T12:01:41.080Z,1016.79
2019-01-21T12:02:41.090Z,1016.77
2019-01-21T12:03:41.081Z,1016.75
2019-01-21T12:04:41.059Z,1016.77
2019-01-21T12:05:41.031Z,1016.78
2019-01-21T12:06:41.048Z,1016.80
2019-01-21T12:07:41.023Z,1016.78
2019-01-21T12:08:41.031Z,1016.78
2019-01-21T12:09:41.013Z,1016.83
2019-01-21T12:10:40.988Z,1016.82
2019-01-21T12:11:40.973Z,1016.79
2019-01-21T12:12:40.967Z,1016.76
2019-01-21T12:13:40.963Z,1016.83
2019-01-21T12:14:40.948Z,1016.80
2019-01-21T12:15:40.934Z,1016.82
2019-01-21T12:16:40.925Z,1016.82
2019-01-21T12:17:40.899Z,1016.75
2019-01-21T12:18:40.936Z,1016.86
2019-01-21T12:19:40.882Z,1016.84
2019-01-21T12:20:40.886Z,1016.88
2019-01-21T12:21:40.859Z,1016.81
2019-01-21T12:22:40.856Z,1016.87
2019-01-21T12:23:40.854Z,1016.82
2019-01-21T12:24:40.865Z,1016.86
2019-01-21T12:25:40.809Z,1016.76
2019-01-21T12:26:40.805Z,1016.88
2019-01-21T12:27:40.799Z,1016.82
2019-01-21T12:28:40.791Z,1016.86
2019-01-21T12:29:40.783Z,1016.88
2019-01-21T12:30:40.769Z,1016.90
2019-01-21T12:31:40.745Z,1016.86
2019-01-21T12:32:40.743Z,1016.86
2019-01-21T12:33:40.729Z,1016.81
2019-01-21T12:34:40.745Z,1016.74
2019-01-21T12:35:40.712Z,1016.82
2019-01-21T12:36:40.705Z,1016.71
2019-01-21T12:37:40.678Z,1016.69
2019-01-21T12:38:40.685Z,1016.68
2019-01-21T12:39:40.677Z,1016.73
2019-01-21T12:40:40.649Z,1016.69
2019-01-21T12:41:40.638Z,1016.77
2019-01-21T12:42:40.633Z,1016.75
2019-01-21T12:43:40.614Z,1016.70
2019-01-21T12:44:41.628Z,1016.61
2019-01-21T12:45:40.587Z,1016.61
2019-01-21T12:46:40.625Z,1016.61
2019-01-21T12:47:40.569Z,1016.56
2019-01-21T12:48:40.566Z,1016.52
2019-01-21T12:49:40.565Z,1016.47
2019-01-21T12:50:40.547Z,1016.49
2019-01-21T12:51:40.523Z,1016.48
2019-01-21T12:52:40.515Z,1016.51
2019-01-21T12:53:40.500Z,1016.48
2019-01-21T12:54:40.529Z,1016.50
2019-01-21T12:55:40.477Z,1016.53
2019-01-21T12:56:40.475Z,1016.43
2019-01-21T12:57:40.457Z,1016.36
2019-01-21T12:58:40.459Z,1016.34
2019-01-21T12:59:40.430Z,1016.28
2019-01-21T13:00:40.453Z,1016.25
2019-01-21T13:01:40.413Z,1016.22
2019-01-21T13:02:40.413Z,1016.18
2019-01-21T13:03:40.384Z,1016.12
2019-01-21T13:04:40.387Z,1016.15
2019-01-21T13:05:40.383Z,1016.14
2019-01-21T13:06:40.356Z,1016.14
2019-01-21T13:07:40.343Z,1016.07
2019-01-21T13:08:40.355Z,1016.11
2019-01-21T13:09:40.319Z,1016.13
2019-01-21T13:10:40.332Z,1016.13
2019-01-21T13:11:40.297Z,1016.16
2019-01-21T13:12:40.309Z,1016.08
2019-01-21T13:13:40.277Z,1016.05
2019-01-21T13:14:40.283Z,1016.05
2019-01-21T13:15:40.286Z,1016.00
2019-01-21T13:16:40.252Z,1015.98
2019-01-21T13:17:40.236Z,1016.00
2019-01-21T13:18:40.234Z,1016.03
2019-01-21T13:19:40.205Z,1015.99
2019-01-21T13:20:40.244Z,1016.03
2019-01-21T13:21:40.187Z,1016.05
2019-01-21T13:22:40.187Z,1016.02
2019-01-21T13:23:40.166Z,1016.01
2019-01-21T13:24:40.170Z,1016.09
2019-01-21T13:25:40.158Z,1016.00
2019-01-21T13:26:40.137Z,1016.04
2019-01-21T13:27:40.141Z,1016.04
2019-01-21T13:28:40.111Z,1016.01
2019-01-21T13:29:40.094Z,1015.96
2019-01-21T13:30:40.116Z,1016.01
2019-01-21T13:31:40.072Z,1015.98
2019-01-21T13:32:40.070Z,1015.95
2019-01-21T13:33:40.073Z,1015.93
2019-01-21T13:34:40.051Z,1015.93
2019-01-21T13:35:40.055Z,1015.88
2019-01-21T13:36:40.033Z,1015.81
2019-01-21T13:37:40.008Z,1015.84
2019-01-21T13:38:40.005Z,1015.84
2019-01-21T13:39:39.982Z,1015.84
2019-01-21T13:40:40.018Z,1015.77
2019-01-21T13:41:39.965Z,1015.76
2019-01-21T13:42:39.982Z,1015.77
2019-01-21T13:43:39.938Z,1015.73
2019-01-21T13:44:39.935Z,1015.74
2019-01-21T13:45:39.924Z,1015.70
2019-01-21T13:46:39.928Z,1015.68
2019-01-21T13:47:39.900Z,1015.65
2019-01-21T13:48:39.900Z,1015.64
2019-01-21T13:49:39.880Z,1015.64
2019-01-21T13:50:39.870Z,1015.63
2019-01-21T13:51:39.873Z,1015.64
2019-01-21T13:52:39.852Z,1015.62
2019-01-21T13:53:39.828Z,1015.58
2019-01-21T13:54:39.832Z,1015.62
2019-01-21T13:55:39.803Z,1015.55
2019-01-21T13:56:39.833Z,1015.56
2019-01-21T13:57:39.783Z,1015.55
2019-01-21T13:58:39.795Z,1015.49
2019-01-21T13:59:39.763Z,1015.54
2019-01-21T14:00:39.756Z,1015.59
2019-01-21T14:01:39.778Z,1015.53
2019-01-21T14:02:40.738Z,1015.53
2019-01-21T14:03:39.725Z,1015.51
2019-01-21T14:04:39.725Z,1015.52
2019-01-21T14:05:39.688Z,1015.58
2019-01-21T14:06:39.728Z,1015.53
2019-01-21T14:07:39.680Z,1015.43
2019-01-21T14:08:39.679Z,1015.49
2019-01-21T14:09:39.653Z,1015.52
2019-01-21T14:10:39.650Z,1015.52
2019-01-21T14:11:39.644Z,1015.47
2019-01-21T14:12:39.630Z,1015.50
2019-01-21T14:13:39.606Z,1015.45
2019-01-21T14:14:39.598Z,1015.46
2019-01-21T14:15:39.580Z,1015.42
2019-01-21T14:16:39.607Z,1015.36
2019-01-21T14:17:39.560Z,1015.41
2019-01-21T14:18:39.567Z,1015.33
2019-01-21T14:19:39.536Z,1015.33
2019-01-21T14:20:43.603Z,1015.33
2019-01-21T14:21:39.554Z,1015.31
2019-01-21T14:22:39.518Z,1015.23
2019-01-21T14:23:39.498Z,1015.23
2019-01-21T14:24:39.495Z,1015.18
2019-01-21T14:25:39.488Z,1015.18
2019-01-21T14:26:39.466Z,1015.14
2019-01-21T14:27:39.466Z,1015.14
2019-01-21T14:28:39.453Z,1015.09
2019-01-21T14:29:39.425Z,1015.08
2019-01-21T14:30:39.424Z,1015.09
2019-01-21T14:31:39.406Z,1015.04
2019-01-21T14:32:39.431Z,1015.01
2019-01-21T14:33:39.380Z,1015.03
2019-01-21T14:34:39.388Z,1014.94
2019-01-21T14:35:39.360Z,1014.96
2019-01-21T14:36:39.359Z,1014.97
2019-01-21T14:37:39.365Z,1014.99
2019-01-21T14:38:39.337Z,1014.95
2019-01-21T14:39:39.316Z,1014.99
2019-01-21T14:40:39.313Z,1014.98
2019-01-21T14:41:39.296Z,1015.00
2019-01-21T14:42:39.324Z,1015.07
2019-01-21T14:43:39.271Z,1015.10
2019-01-21T14:44:39.263Z,1015.03
2019-01-21T14:45:39.248Z,1015.06
2019-01-21T14:46:39.247Z,1015.05
2019-01-21T14:47:39.254Z,1015.07
2019-01-21T14:48:39.238Z,1015.02
2019-01-21T14:49:39.204Z,1015.02
2019-01-21T14:50:39.207Z,1015.02
2019-01-21T14:51:39.180Z,1014.98
2019-01-21T14:52:39.197Z,1014.93
2019-01-21T14:53:39.187Z,1015.02
2019-01-21T14:54:39.268Z,1014.99
2019-01-21T14:55:39.154Z,1015.02
2019-01-21T14:56:39.231Z,1014.96
2019-01-21T14:57:39.157Z,1014.99
2019-01-21T14:58:39.192Z,1014.98
2019-01-21T14:59:39.098Z,1014.96
2019-01-21T15:00:39.154Z,1014.98
2019-01-21T15:01:39.075Z,1014.98
2019-01-21T15:02:39.063Z,1014.93
2019-01-21T15:03:39.077Z,1014.96
2019-01-21T15:04:39.121Z,1014.95
2019-01-21T15:05:39.058Z,1014.98
2019-01-21T15:06:39.089Z,1014.96
2019-01-21T15:07:39.074Z,1014.92
2019-01-21T15:08:39.067Z,1014.87
2019-01-21T15:09:39.014Z,1014.91
2019-01-21T15:10:39.124Z,1014.93
2019-01-21T15:11:38.970Z,1014.90
2019-01-21T15:12:39.073Z,1014.87
2019-01-21T15:13:39.032Z,1014.88
2019-01-21T15:14:39.106Z,1014.94
2019-01-21T15:15:38.950Z,1014.88
2019-01-21T15:16:39.015Z,1014.87
2019-01-21T15:17:38.896Z,1014.86
2019-01-21T15:18:38.972Z,1014.85
2019-01-21T15:19:38.865Z,1014.88
2019-01-21T15:20:38.940Z,1014.87
2019-01-21T15:21:38.859Z,1014.83
2019-01-21T15:22:38.908Z,1014.87
2019-01-21T15:23:38.947Z,1014.84
2019-01-21T15:24:38.822Z,1014.81
2019-01-21T15:25:38.831Z,1014.87
2019-01-21T15:26:38.871Z,1014.87
2019-01-21T15:27:38.788Z,1014.88
2019-01-21T15:28:38.846Z,1014.91
2019-01-21T15:29:38.793Z,1014.94
2019-01-21T15:30:38.783Z,1014.90
2019-01-21T15:31:38.755Z,1014.92
2019-01-21T15:32:38.770Z,1014.92
2019-01-21T15:33:38.728Z,1014.93
2019-01-21T15:34:38.816Z,1014.97
2019-01-21T15:35:38.715Z,1015.01
2019-01-21T15:36:38.870Z,1015.07
2019-01-21T15:37:38.694Z,1015.03
2019-01-21T15:38:38.891Z,1014.99
2019-01-21T15:39:38.727Z,1015.06
2019-01-21T15:40:38.828Z,1015.06
2019-01-21T15:41:38.682Z,1015.00
2019-01-21T15:42:38.768Z,1015.02
2019-01-21T15:43:38.626Z,1015.00
2019-01-21T15:44:38.723Z,1014.98
2019-01-21T15:45:38.641Z,1014.97
2019-01-21T15:46:39.702Z,1014.97
2019-01-21T15:47:38.597Z,1014.98
2019-01-21T15:48:38.596Z,1014.99
2019-01-21T15:49:38.552Z,1014.99
2019-01-21T15:50:38.564Z,1014.95
2019-01-21T15:51:38.609Z,1014.96
2019-01-21T15:52:38.705Z,1015.00
2019-01-21T15:53:38.489Z,1015.03
2019-01-21T15:54:38.530Z,1014.95
2019-01-21T15:55:38.522Z,1015.02
2019-01-21T15:56:38.570Z,1015.02
2019-01-21T15:57:38.446Z,1014.97
2019-01-21T15:58:38.539Z,1014.98
2019-01-21T15:59:38.446Z,1014.91
2019-01-21T16:00:38.504Z,1014.98
2019-01-21T16:01:38.407Z,1015.02
2019-01-21T16:02:38.471Z,1015.03
2019-01-21T16:03:38.376Z,1015.01
2019-01-21T16:04:38.480Z,1015.00
2019-01-21T16:05:38.354Z,1015.01
2019-01-21T16:06:38.352Z,1015.08
2019-01-21T16:07:38.337Z,1015.06
2019-01-21T16:08:38.374Z,1015.05
2019-01-21T16:09:38.342Z,1015.04
2019-01-21T16:10:38.346Z,1015.08
2019-01-21T16:11:38.290Z,1015.02
2019-01-21T16:12:38.318Z,1015.01
2019-01-21T16:13:38.274Z,1014.99
2019-01-21T16:14:38.317Z,1014.99
2019-01-21T16:15:38.247Z,1015.01
2019-01-21T16:16:38.353Z,1014.95
2019-01-21T16:17:38.226Z,1014.94
2019-01-21T16:18:38.322Z,1014.91
2019-01-21T16:19:38.265Z,1014.89
2019-01-21T16:20:38.300Z,1014.89
2019-01-21T16:21:38.180Z,1014.83
2019-01-21T16:22:38.252Z,1014.83
2019-01-21T16:23:38.158Z,1014.79
2019-01-21T16:24:38.258Z,1014.81
2019-01-21T16:25:38.163Z,1014.76
2019-01-21T16:26:38.224Z,1014.72
2019-01-21T16:27:38.104Z,1014.64
2019-01-21T16:28:38.158Z,1014.59
2019-01-21T16:29:38.102Z,1014.64
2019-01-21T16:30:38.126Z,1014.60
2019-01-21T16:31:38.068Z,1014.51
2019-01-21T16:32:38.095Z,1014.50
2019-01-21T16:33:38.046Z,1014.44
2019-01-21T16:34:39.130Z,1014.45
2019-01-21T16:35:38.092Z,1014.43
2019-01-21T16:36:38.033Z,1014.42
2019-01-21T16:37:38.002Z,1014.41
2019-01-21T16:38:38.099Z,1014.31
2019-01-21T16:39:37.976Z,1014.40
2019-01-21T16:40:38.113Z,1014.38
2019-01-21T16:41:37.955Z,1014.33
2019-01-21T16:42:38.036Z,1014.29
2019-01-21T16:43:37.930Z,1014.30
2019-01-21T16:44:38.021Z,1014.28
2019-01-21T16:45:37.944Z,1014.30
2019-01-21T16:46:37.975Z,1014.31
2019-01-21T16:47:37.890Z,1014.23
2019-01-21T16:48:37.955Z,1014.27
2019-01-21T16:49:37.879Z,1014.22
2019-01-21T16:50:37.951Z,1014.27
2019-01-21T16:51:37.844Z,1014.31
2019-01-21T16:52:37.885Z,1014.31
2019-01-21T16:53:37.822Z,1014.24
2019-01-21T16:54:38.869Z,1014.32
2019-01-21T16:55:37.820Z,1014.30
2019-01-21T16:56:37.930Z,1014.30
2019-01-21T16:57:37.783Z,1014.31
2019-01-21T16:58:37.896Z,1014.36
2019-01-21T16:59:37.765Z,1014.38
2019-01-21T17:00:40.045Z,1014.36
2019-01-21T17:01:37.728Z,1014.37
2019-01-21T17:02:39.785Z,1014.34
2019-01-21T17:03:37.713Z,1014.27
2019-01-21T17:04:37.795Z,1014.34
2019-01-21T17:05:37.712Z,1014.38
2019-01-21T17:06:39.478Z,1014.44
2019-01-21T17:07:37.765Z,1014.43
2019-01-21T17:08:37.726Z,1014.42
2019-01-21T17:09:37.663Z,1014.42
2019-01-21T17:10:39.326Z,1014.42
2019-01-21T17:11:37.636Z,1014.45
2019-01-21T17:12:37.660Z,1014.41
2019-01-21T17:13:37.623Z,1014.45
2019-01-21T17:14:37.628Z,1014.55
2019-01-21T17:15:37.582Z,1014.53
2019-01-21T17:16:37.630Z,1014.66
2019-01-21T17:17:37.564Z,1014.67
2019-01-21T17:18:37.679Z,1014.72
2019-01-21T17:19:37.543Z,1014.71
2019-01-21T17:20:37.790Z,1014.64
2019-01-21T17:21:37.637Z,1014.63
2019-01-21T17:22:37.755Z,1014.60
2019-01-21T17:23:37.560Z,1014.55
2019-01-21T17:24:37.666Z,1014.56
2019-01-21T17:25:37.472Z,1014.49
2019-01-21T17:26:37.698Z,1014.54
2019-01-21T17:27:37.540Z,1014.58
2019-01-21T17:28:37.626Z,1014.56
2019-01-21T17:29:37.428Z,1014.47
2019-01-21T17:30:37.484Z,1014.46
2019-01-21T17:31:37.422Z,1014.47
2019-01-21T17:32:37.445Z,1014.44
2019-01-21T17:33:37.378Z,1014.41
2019-01-21T17:34:37.412Z,1014.39
2019-01-21T17:35:37.465Z,1014.40
2019-01-21T17:36:37.380Z,1014.49
2019-01-21T17:37:37.478Z,1014.44
2019-01-21T17:38:40.492Z,1014.42
2019-01-21T17:39:37.350Z,1014.31
2019-01-21T17:40:37.419Z,1014.33
2019-01-21T17:41:37.312Z,1014.25
2019-01-21T17:42:37.391Z,1014.32
2019-01-21T17:43:37.271Z,1014.30
2019-01-21T17:44:37.361Z,1014.29
2019-01-21T17:45:37.247Z,1014.30
2019-01-21T17:46:37.366Z,1014.27
2019-01-21T17:47:37.362Z,1014.29
2019-01-21T17:48:37.313Z,1014.25
2019-01-21T17:49:37.489Z,1014.25
2019-01-21T17:50:37.244Z,1014.30
2019-01-21T17:51:37.330Z,1014.30
2019-01-21T17:52:38.108Z,1014.21
2019-01-21T17:53:38.168Z,1014.22
2019-01-21T17:54:37.201Z,1014.20
2019-01-21T17:55:37.142Z,1014.21
2019-01-21T17:56:37.679Z,1014.19
2019-01-21T17:57:37.124Z,1014.21
2019-01-21T17:58:37.208Z,1014.24
2019-01-21T17:59:37.130Z,1014.26
2019-01-21T18:00:37.224Z,1014.28
2019-01-21T18:01:39.331Z,1014.25
2019-01-21T18:02:37.079Z,1014.25
2019-01-21T18:03:37.058Z,1014.24
2019-01-21T18:04:37.071Z,1014.26
2019-01-21T18:05:37.170Z,1014.27
2019-01-21T18:06:37.057Z,1014.29
2019-01-21T18:07:37.145Z,1014.30
2019-01-21T18:08:37.062Z,1014.30
2019-01-21T18:09:36.994Z,1014.25
2019-01-21T18:10:36.999Z,1014.26
2019-01-21T18:11:41.279Z,1014.29
2019-01-21T18:12:37.008Z,1014.28
2019-01-21T18:13:37.050Z,1014.17
2019-01-21T18:14:36.953Z,1014.16
2019-01-21T18:15:36.926Z,1014.16
2019-01-21T18:16:36.929Z,1014.16
2019-01-21T18:17:36.999Z,1014.14
2019-01-21T18:18:36.900Z,1014.17
2019-01-21T18:19:36.881Z,1014.19
2019-01-21T18:20:36.879Z,1014.17
2019-01-21T18:21:40.238Z,1014.23
2019-01-21T18:22:36.881Z,1014.21
2019-01-21T18:23:36.843Z,1014.19
2019-01-21T18:24:36.840Z,1014.19
2019-01-21T18:25:36.814Z,1014.19
2019-01-21T18:26:36.898Z,1014.18
2019-01-21T18:27:36.860Z,1014.18
2019-01-21T18:28:36.869Z,1014.13
2019-01-21T18:29:36.790Z,1014.12
2019-01-21T18:30:36.834Z,1014.09
2019-01-21T18:31:36.749Z,1014.08
2019-01-21T18:32:36.841Z,1013.99
2019-01-21T18:33:36.756Z,1014.04
2019-01-21T18:34:36.770Z,1013.99
2019-01-21T18:35:36.717Z,1013.98
2019-01-21T18:36:36.746Z,1014.02
2019-01-21T18:37:36.711Z,1014.00
2019-01-21T18:38:36.705Z,1013.97
2019-01-21T18:39:36.661Z,1013.92
2019-01-21T18:40:36.776Z,1013.90
2019-01-21T18:41:36.646Z,1013.92
2019-01-21T18:42:36.722Z,1013.96
2019-01-21T18:43:36.629Z,1014.02
2019-01-21T18:44:36.715Z,1014.00
2019-01-21T18:45:36.616Z,1013.95
2019-01-21T18:46:36.688Z,1014.03
2019-01-21T18:47:36.683Z,1014.03
2019-01-21T18:48:37.679Z,1013.95
2019-01-21T18:49:36.631Z,1013.99
2019-01-21T18:50:36.618Z,1013.99
2019-01-21T18:51:36.680Z,1013.99
2019-01-21T18:52:37.610Z,1013.97
2019-01-21T18:53:37.510Z,1013.93
2019-01-21T18:54:38.605Z,1013.98
2019-01-21T18:55:36.513Z,1014.01
2019-01-21T18:56:36.524Z,1014.04
2019-01-21T18:57:36.482Z,1014.00
2019-01-21T18:58:36.530Z,1014.04
2019-01-21T18:59:36.446Z,1014.01
2019-01-21T19:00:36.574Z,1013.99
2019-01-21T19:01:36.434Z,1014.01
2019-01-21T19:02:36.531Z,1014.00
2019-01-21T19:03:36.430Z,1014.00
2019-01-21T19:04:36.501Z,1013.94
2019-01-21T19:05:36.375Z,1013.95
2019-01-21T19:06:36.385Z,1013.91
2019-01-21T19:07:36.359Z,1013.93
2019-01-21T19:08:36.430Z,1013.93
2019-01-21T19:09:36.350Z,1013.97
2019-01-21T19:10:36.509Z,1014.00
2019-01-21T19:11:36.325Z,1014.00
2019-01-21T19:12:36.382Z,1014.04
2019-01-21T19:13:36.347Z,1014.03
2019-01-21T19:14:36.344Z,1014.05
2019-01-21T19:15:36.284Z,1014.00
2019-01-21T19:16:37.332Z,1014.06
2019-01-21T19:17:36.262Z,1013.96
2019-01-21T19:18:36.323Z,1014.01
2019-01-21T19:19:36.228Z,1013.99
2019-01-21T19:20:36.230Z,1013.97
2019-01-21T19:21:36.211Z,1013.91
2019-01-21T19:22:36.214Z,1013.92
2019-01-21T19:23:36.207Z,1013.94
2019-01-21T19:24:36.282Z,1013.93
2019-01-21T19:25:36.158Z,1014.03
2019-01-21T19:26:36.252Z,1013.93
2019-01-21T19:27:36.131Z,1013.94
2019-01-21T19:28:36.252Z,1013.94
2019-01-21T19:29:36.166Z,1013.96
2019-01-21T19:30:36.188Z,1014.04
2019-01-21T19:31:36.147Z,1014.01
2019-01-21T19:32:36.156Z,1013.95
2019-01-21T19:33:36.114Z,1013.98
2019-01-21T19:34:37.192Z,1013.96
2019-01-21T19:35:36.043Z,1013.97
2019-01-21T19:36:36.102Z,1014.01
2019-01-21T19:37:36.032Z,1013.96
2019-01-21T19:38:37.091Z,1013.97
2019-01-21T19:39:36.069Z,1013.94
2019-01-21T19:40:36.028Z,1013.96
2019-01-21T19:41:35.991Z,1013.96
2019-01-21T19:42:36.114Z,1013.95
2019-01-21T19:43:36.009Z,1013.98
2019-01-21T19:44:36.007Z,1013.88
2019-01-21T19:45:35.946Z,1013.91
2019-01-21T19:46:36.043Z,1013.94
2019-01-21T19:47:35.914Z,1013.96
2019-01-21T19:48:36.009Z,1013.94
2019-01-21T19:49:35.940Z,1013.91
2019-01-21T19:50:36.008Z,1013.87
2019-01-21T19:51:35.956Z,1013.88
2019-01-21T19:52:35.939Z,1013.84
2019-01-21T19:53:35.869Z,1013.81
2019-01-21T19:54:35.967Z,1013.80
2019-01-21T19:55:35.830Z,1013.82
2019-01-21T19:56:35.901Z,1013.78